Terminal Aerodrome Forecast
Issued by NWS Sioux Falls, SD

Home | Current Version | Previous Version | Graphics & Text | Print | Product List | Glossary On
Versions: 1 2 3 4 5 6 7 8 9 10 11 12 13 14 15 16 17
000
FTUS43 KFSD 281720
TAFFSD
TAF
KFSD 281720Z 2818/2918 18016G24KT P6SM SCT040 SCT100
     FM290100 17008KT P6SM SCT040
     FM291200 VRB04KT 6SM -TSRA BKN040CB BKN080
     FM291500 01010KT 6SM -RA OVC025=

USA.gov is the U.S. government's official web portal to all federal, state and local government web resources and services.